Time;durP1;ratioP1;P1;durP2;ratioP2;P2;SDS_P1;SDS_P2;PMS_P1;PMS_P2;Temp;Humidity;BMP_temperature;BMP_pressure;BME280_temperature;BME280_humidity;BME280_pressure;Samples;Min_cycle;Max_cycle;Signal;HPM_P1;HPM_P2
2023/09/12 00:00:36;;;;;;;13.45;7.10;;;18.10;99.90;;;;;;2683778;39;21621;31
2023/09/12 00:03:09;;;;;;;12.27;6.78;;;18.00;99.90;;;;;;2586238;54;20034;31
2023/09/12 00:05:46;;;;;;;12.75;8.15;;;18.00;99.90;;;;;;2586577;54;20031;31
2023/09/12 00:08:20;;;;;;;12.55;7.75;;;18.00;99.90;;;;;;2586218;54;21883;31
2023/09/12 00:11:02;;;;;;;12.27;7.10;;;17.90;99.90;;;;;;2586341;54;20839;31
2023/09/12 00:13:35;;;;;;;13.10;7.60;;;17.90;99.90;;;;;;2586146;54;20142;31
2023/09/12 00:16:09;;;;;;;11.23;7.77;;;17.90;99.90;;;;;;2586260;54;20783;31
2023/09/12 00:18:42;;;;;;;12.48;8.38;;;17.80;99.90;;;;;;2586408;54;20033;31
2023/09/12 00:21:17;;;;;;;9.02;6.47;;;17.80;99.90;;;;;;2586337;54;20042;31
2023/09/12 00:23:49;;;;;;;11.90;6.88;;;17.80;99.90;;;;;;2585962;54;20894;31
2023/09/12 00:26:21;;;;;;;9.20;6.60;;;17.80;99.90;;;;;;2586235;54;20034;31
2023/09/12 00:28:55;;;;;;;14.35;9.00;;;17.80;99.90;;;;;;2754891;31;21562;31
2023/09/12 00:31:27;;;;;;;13.73;8.48;;;17.80;99.90;;;;;;2586260;54;20133;31
2023/09/12 00:34:00;;;;;;;11.65;7.60;;;17.80;99.90;;;;;;2585757;54;20039;31
2023/09/12 00:36:36;;;;;;;13.05;8.25;;;17.80;99.90;;;;;;2586542;54;20663;31
2023/09/12 00:39:09;;;;;;;14.90;9.15;;;17.70;99.90;;;;;;2586153;54;20034;31
2023/09/12 00:41:41;;;;;;;13.55;8.38;;;17.70;99.90;;;;;;2585928;54;19934;31
2023/09/12 00:44:16;;;;;;;16.55;9.52;;;17.70;99.90;;;;;;2683886;39;21495;31
2023/09/12 00:46:49;;;;;;;14.85;9.88;;;17.70;99.90;;;;;;2586161;54;20029;31
2023/09/12 00:49:22;;;;;;;14.57;9.02;;;17.60;99.90;;;;;;2604127;46;20034;31
2023/09/12 00:51:58;;;;;;;15.67;9.83;;;17.70;99.90;;;;;;2604342;46;20050;31
2023/09/12 00:54:29;;;;;;;;;;;17.60;99.90;;;;;;2586320;54;20131;31
2023/09/12 00:57:02;;;;;;;14.95;9.35;;;17.50;99.90;;;;;;2684289;39;22523;31
2023/09/12 00:59:34;;;;;;;13.40;9.63;;;17.60;99.90;;;;;;2586218;54;20027;31
2023/09/12 01:02:07;;;;;;;14.57;9.07;;;17.60;99.90;;;;;;2586396;54;21618;31
2023/09/12 01:04:41;;;;;;;13.38;9.00;;;17.50;99.90;;;;;;2585929;54;20030;31
2023/09/12 01:07:16;;;;;;;14.20;9.50;;;17.40;99.90;;;;;;2604144;46;20030;31
2023/09/12 01:09:49;;;;;;;14.93;9.43;;;17.40;99.90;;;;;;2585990;54;20101;31
2023/09/12 01:12:21;;;;;;;13.70;9.90;;;17.40;99.90;;;;;;2604872;46;20038;31
2023/09/12 01:14:55;;;;;;;12.38;8.93;;;17.30;99.90;;;;;;2585865;54;21654;31
2023/09/12 01:17:30;;;;;;;14.85;10.57;;;17.30;99.90;;;;;;2585972;54;20737;31
2023/09/12 01:20:02;;;;;;;13.10;8.85;;;17.30;99.90;;;;;;2585880;54;20035;31
2023/09/12 01:22:57;;;;;;;16.20;9.25;;;17.20;99.90;;;;;;2586138;54;20902;31
2023/09/12 01:26:02;;;;;;;15.20;10.20;;;17.20;99.90;;;;;;2586206;54;20108;31
2023/09/12 01:28:43;;;;;;;15.57;9.60;;;17.20;99.90;;;;;;2754771;31;20524;31
2023/09/12 01:31:16;;;;;;;17.25;10.50;;;17.10;99.90;;;;;;2586013;54;20512;31
2023/09/12 01:33:50;;;;;;;15.40;10.40;;;17.10;99.90;;;;;;2586091;54;20548;31
2023/09/12 01:36:23;;;;;;;15.30;10.43;;;17.10;99.90;;;;;;2603958;46;20108;31
2023/09/12 01:38:56;;;;;;;16.40;10.17;;;17.10;99.90;;;;;;2586064;54;20238;31
2023/09/12 01:41:29;;;;;;;18.73;10.55;;;17.10;99.90;;;;;;2586020;54;20110;31
2023/09/12 01:44:03;;;;;;;14.35;9.70;;;17.10;99.90;;;;;;2586086;54;21327;31
2023/09/12 01:46:36;;;;;;;13.17;9.47;;;17.00;99.90;;;;;;2586009;54;20033;31
2023/09/12 01:49:09;;;;;;;18.20;9.82;;;17.10;99.90;;;;;;2586118;54;20888;31
2023/09/12 01:51:40;;;;;;;14.52;10.20;;;17.00;99.90;;;;;;2586465;54;20789;31
2023/09/12 01:54:15;;;;;;;15.38;9.02;;;17.00;99.90;;;;;;2585921;54;20840;31
2023/09/12 01:56:47;;;;;;;16.13;9.68;;;17.00;99.90;;;;;;2586150;54;20950;31
2023/09/12 01:59:23;;;;;;;14.98;10.25;;;17.00;99.90;;;;;;2586333;54;20785;31
2023/09/12 02:01:57;;;;;;;15.60;10.15;;;17.00;99.90;;;;;;2585971;54;20077;31
2023/09/12 02:04:28;;;;;;;13.85;9.55;;;17.00;99.90;;;;;;2586014;54;20052;31
2023/09/12 02:07:00;;;;;;;10.55;7.05;;;17.00;99.90;;;;;;2585808;54;20026;31
2023/09/12 02:09:32;;;;;;;14.00;8.77;;;17.00;99.90;;;;;;2585862;54;21268;31
2023/09/12 02:12:06;;;;;;;14.98;9.63;;;17.00;99.90;;;;;;2604344;46;20954;31
2023/09/12 02:14:41;;;;;;;16.05;9.35;;;17.00;99.90;;;;;;2585978;54;20026;31
2023/09/12 02:17:16;;;;;;;19.20;11.10;;;17.00;99.90;;;;;;2585821;54;20953;31
2023/09/12 02:19:51;;;;;;;14.57;9.13;;;17.00;99.90;;;;;;2585733;54;20030;31
2023/09/12 02:22:22;;;;;;;13.83;9.40;;;16.90;99.90;;;;;;2586110;54;20846;31
2023/09/12 02:24:56;;;;;;;17.48;10.25;;;16.90;99.90;;;;;;2586074;54;20033;31
2023/09/12 02:27:30;;;;;;;16.75;9.95;;;16.90;99.90;;;;;;2585821;54;20033;31
2023/09/12 02:30:06;;;;;;;15.73;11.23;;;16.90;99.90;;;;;;2585632;54;20050;31
2023/09/12 02:32:39;;;;;;;17.65;10.07;;;16.80;99.90;;;;;;2604011;46;20057;31
2023/09/12 02:35:11;;;;;;;16.60;10.35;;;16.80;99.90;;;;;;2585772;54;20916;31
2023/09/12 02:37:43;;;;;;;15.10;9.45;;;16.80;99.90;;;;;;2585592;54;20064;31
2023/09/12 02:40:18;;;;;;;14.95;10.25;;;16.80;99.90;;;;;;2586127;54;20067;31
2023/09/12 02:42:54;;;;;;;14.18;9.52;;;16.80;99.90;;;;;;2585727;54;20113;31
2023/09/12 02:45:29;;;;;;;15.40;10.00;;;16.80;99.90;;;;;;2585728;54;20639;31
2023/09/12 02:48:00;;;;;;;;;;;16.70;99.90;;;;;;2586094;54;20795;31
2023/09/12 02:50:32;;;;;;;13.43;8.73;;;16.70;99.90;;;;;;2683557;39;20322;31
2023/09/12 02:53:03;;;;;;;13.37;8.93;;;16.60;99.90;;;;;;2683586;39;21378;31
2023/09/12 02:55:35;;;;;;;16.20;10.65;;;16.60;99.90;;;;;;2585931;54;21011;31
2023/09/12 02:58:07;;;;;;;14.75;8.75;;;16.60;99.90;;;;;;2585842;54;20922;31
2023/09/12 03:00:44;;;;;;;16.13;10.18;;;16.60;99.90;;;;;;2585892;54;20033;31
2023/09/12 03:03:18;;;;;;;14.07;9.80;;;16.60;99.90;;;;;;2585622;54;20034;31
2023/09/12 03:05:50;;;;;;;11.25;7.80;;;16.50;99.90;;;;;;2585689;54;20030;31
2023/09/12 03:08:23;;;;;;;15.32;9.88;;;16.50;99.90;;;;;;2585548;54;20038;31
2023/09/12 03:10:58;;;;;;;15.70;9.50;;;16.50;99.90;;;;;;2585427;54;20077;31
2023/09/12 03:13:32;;;;;;;19.00;10.05;;;16.50;99.90;;;;;;2604672;47;20243;31
2023/09/12 03:16:08;;;;;;;14.73;9.60;;;16.40;99.90;;;;;;2683380;39;21318;31
2023/09/12 03:18:40;;;;;;;15.25;10.13;;;16.40;99.90;;;;;;2585626;54;20811;31
2023/09/12 03:21:15;;;;;;;18.30;10.90;;;16.50;99.90;;;;;;2585638;54;20058;31
2023/09/12 03:23:48;;;;;;;14.27;9.40;;;16.40;99.90;;;;;;2585732;54;20031;31
2023/09/12 03:26:22;;;;;;;15.70;10.50;;;16.40;99.90;;;;;;2585580;54;20058;31
2023/09/12 03:28:53;;;;;;;16.92;11.15;;;16.40;99.90;;;;;;2585593;54;20116;31
2023/09/12 03:31:30;;;;;;;14.05;9.50;;;16.40;99.90;;;;;;2585744;54;20026;31
2023/09/12 03:34:03;;;;;;;16.58;10.25;;;16.30;99.90;;;;;;2585681;54;20057;31
2023/09/12 03:36:39;;;;;;;16.50;10.00;;;16.30;99.90;;;;;;2585639;54;20034;31
2023/09/12 03:39:13;;;;;;;16.73;11.40;;;16.30;99.90;;;;;;2585827;54;20999;31
2023/09/12 03:41:44;;;;;;;15.63;11.07;;;16.30;99.90;;;;;;2585415;54;20915;31
2023/09/12 03:44:16;;;;;;;16.17;10.50;;;16.30;99.90;;;;;;2585555;54;20090;31
2023/09/12 03:46:54;;;;;;;16.10;9.75;;;16.20;99.90;;;;;;2585693;54;21027;31
2023/09/12 03:49:30;;;;;;;20.98;10.93;;;16.30;99.90;;;;;;2585530;54;20038;31
2023/09/12 03:52:05;;;;;;;17.55;11.02;;;16.20;99.90;;;;;;2585491;54;19934;31
2023/09/12 03:54:37;;;;;;;18.10;10.55;;;16.20;99.90;;;;;;2585675;54;20871;31
2023/09/12 03:57:09;;;;;;;16.13;10.77;;;16.20;99.90;;;;;;2603925;47;20057;31
2023/09/12 03:59:41;;;;;;;14.15;9.52;;;16.10;99.90;;;;;;2585603;54;20776;31
2023/09/12 04:02:18;;;;;;;17.37;10.47;;;16.10;99.90;;;;;;2585265;54;20850;31
2023/09/12 04:04:50;;;;;;;16.70;10.55;;;16.10;99.90;;;;;;2585597;54;20038;31
2023/09/12 04:07:24;;;;;;;14.93;10.40;;;16.10;99.90;;;;;;2585616;54;20879;31
2023/09/12 04:09:57;;;;;;;17.05;10.63;;;16.10;99.90;;;;;;2585611;54;20028;31
2023/09/12 04:12:30;;;;;;;15.90;10.50;;;16.00;99.90;;;;;;2585650;54;20026;31
2023/09/12 04:15:03;;;;;;;13.60;10.38;;;16.00;99.90;;;;;;2585639;54;20745;31
2023/09/12 04:17:38;;;;;;;17.58;11.35;;;16.10;99.90;;;;;;2585803;54;20037;31
2023/09/12 04:20:13;;;;;;;16.17;10.03;;;16.00;99.90;;;;;;2586249;54;20085;31
2023/09/12 04:22:47;;;;;;;;;;;16.00;99.90;;;;;;2586417;54;20260;31
2023/09/12 04:25:21;;;;;;;14.60;9.80;;;16.00;99.90;;;;;;2586454;54;20928;31
2023/09/12 04:27:55;;;;;;;15.50;8.80;;;16.00;99.90;;;;;;2586355;54;20082;31
2023/09/12 04:30:31;;;;;;;15.45;10.25;;;16.00;99.90;;;;;;2604467;46;20900;31
2023/09/12 04:33:13;;;;;;;14.57;10.70;;;16.00;99.90;;;;;;2586116;54;20914;31
2023/09/12 04:35:49;;;;;;;16.40;10.35;;;16.00;99.90;;;;;;2586326;54;20081;31
2023/09/12 04:38:37;;;;;;;15.57;11.30;;;16.00;99.90;;;;;;2586148;54;20117;31
2023/09/12 04:41:16;;;;;;;18.52;10.30;;;16.00;99.90;;;;;;2586312;54;20885;31
2023/09/12 04:43:58;;;;;;;17.35;10.90;;;16.00;99.90;;;;;;2586220;54;20479;31
2023/09/12 04:46:36;;;;;;;15.20;10.30;;;16.00;99.90;;;;;;2604776;46;20066;31
2023/09/12 04:49:15;;;;;;;16.65;10.38;;;16.00;99.90;;;;;;2586295;54;20893;31
2023/09/12 04:51:58;;;;;;;15.07;10.02;;;16.00;99.90;;;;;;2585881;54;20027;31
2023/09/12 04:54:36;;;;;;;15.13;10.23;;;16.00;99.90;;;;;;2586417;54;20776;31
2023/09/12 04:57:18;;;;;;;;;;;16.00;99.90;;;;;;2585997;54;20029;31
2023/09/12 04:59:57;;;;;;;16.42;10.35;;;16.00;99.90;;;;;;2585878;54;20674;31
2023/09/12 05:02:38;;;;;;;16.50;11.80;;;16.10;99.90;;;;;;2586167;54;20027;31
2023/09/12 05:05:18;;;;;;;17.98;10.80;;;16.10;99.90;;;;;;2586169;54;20015;31
2023/09/12 05:07:55;;;;;;;16.92;12.02;;;16.10;99.90;;;;;;2597253;46;20082;31
2023/09/12 05:10:32;;;;;;;15.82;10.40;;;16.10;99.90;;;;;;2602816;46;20029;31
2023/09/12 05:13:13;;;;;;;18.85;10.82;;;16.20;99.90;;;;;;2596141;46;20967;31
2023/09/12 05:15:56;;;;;;;16.57;10.43;;;16.20;99.90;;;;;;2683002;39;21538;31
2023/09/12 05:18:35;;;;;;;16.10;10.90;;;16.10;99.90;;;;;;2773640;31;20495;31
2023/09/12 05:21:17;;;;;;;15.95;10.95;;;16.20;99.90;;;;;;2585882;54;19942;31
2023/09/12 05:23:51;;;;;;;20.80;10.88;;;16.20;99.90;;;;;;2585382;54;20905;31
2023/09/12 05:26:27;;;;;;;;;;;16.30;99.90;;;;;;2604040;46;20025;31
2023/09/12 05:29:10;;;;;;;15.82;10.80;;;16.40;99.90;;;;;;2604555;46;20866;31
2023/09/12 05:31:46;;;;;;;14.37;9.37;;;16.40;99.90;;;;;;2585976;54;20764;31
2023/09/12 05:34:20;;;;;;;18.50;11.20;;;16.50;99.90;;;;;;2599353;46;20141;31
2023/09/12 05:37:00;;;;;;;17.40;11.30;;;16.60;99.90;;;;;;2585860;54;20235;31
2023/09/12 05:39:32;;;;;;;19.00;11.25;;;16.60;99.90;;;;;;2585946;54;20081;31
2023/09/12 05:42:08;;;;;;;20.00;12.30;;;16.70;99.90;;;;;;2600530;46;20023;31
2023/09/12 05:44:42;;;;;;;17.07;11.03;;;16.90;99.90;;;;;;2585907;54;20277;31
2023/09/12 05:47:18;;;;;;;17.80;10.80;;;17.20;99.90;;;;;;2586204;54;20030;31
2023/09/12 05:49:53;;;;;;;17.10;10.75;;;17.50;99.90;;;;;;2586091;54;20036;31
2023/09/12 05:52:29;;;;;;;17.50;10.20;;;17.90;99.90;;;;;;2585990;54;20053;31
2023/09/12 05:55:04;;;;;;;16.33;10.90;;;18.20;99.90;;;;;;2604146;46;20912;31
2023/09/12 05:57:39;;;;;;;19.02;10.70;;;18.60;99.90;;;;;;2585720;54;21601;31
2023/09/12 06:00:14;;;;;;;14.70;10.00;;;19.00;99.90;;;;;;2585976;54;20030;31
2023/09/12 06:02:49;;;;;;;17.38;10.90;;;19.40;99.90;;;;;;2604300;46;20947;31
2023/09/12 06:05:21;;;;;;;14.90;10.30;;;19.80;99.90;;;;;;2585841;54;20919;31
2023/09/12 06:07:58;;;;;;;14.48;10.32;;;20.10;99.90;;;;;;2585940;54;20809;31
2023/09/12 06:10:31;;;;;;;14.30;9.70;;;20.20;99.90;;;;;;2586005;54;20026;31
2023/09/12 06:13:05;;;;;;;15.10;10.40;;;20.50;99.90;;;;;;2586025;54;20054;31
2023/09/12 06:15:38;;;;;;;16.45;11.18;;;20.70;99.90;;;;;;2585955;54;20911;31
2023/09/12 06:18:12;;;;;;;13.77;10.33;;;20.90;99.90;;;;;;2585896;54;20117;31
2023/09/12 06:20:46;;;;;;;13.45;9.75;;;21.20;99.90;;;;;;2586149;54;21089;31
2023/09/12 06:23:23;;;;;;;12.90;9.55;;;21.40;99.90;;;;;;2586148;54;20953;31
2023/09/12 06:25:59;;;;;;;16.23;11.02;;;21.70;99.90;;;;;;2586226;54;20765;31
2023/09/12 06:28:36;;;;;;;14.85;9.85;;;21.90;99.90;;;;;;2586088;54;20026;31
2023/09/12 06:31:13;;;;;;;14.50;9.90;;;22.20;99.90;;;;;;2754093;31;22241;31
2023/09/12 06:33:46;;;;;;;;;;;22.30;99.90;;;;;;2585622;54;20022;31
2023/09/12 06:36:26;;;;;;;12.35;9.50;;;22.40;99.90;;;;;;2604129;46;19938;31
2023/09/12 06:39:10;;;;;;;15.10;9.70;;;22.50;99.90;;;;;;2585873;54;20034;31
2023/09/12 06:41:44;;;;;;;14.87;10.20;;;22.70;99.90;;;;;;2683457;39;21821;31
2023/09/12 06:44:20;;;;;;;13.95;10.13;;;23.00;99.90;;;;;;2585908;54;20049;31
2023/09/12 06:47:03;;;;;;;14.27;9.63;;;23.20;99.90;;;;;;2585654;54;20037;31
2023/09/12 06:49:39;;;;;;;15.10;10.20;;;23.40;99.90;;;;;;2585869;54;20027;31
2023/09/12 06:52:18;;;;;;;13.85;9.05;;;23.60;99.90;;;;;;2683539;39;21540;31
2023/09/12 06:55:00;;;;;;;13.60;9.60;;;23.90;99.90;;;;;;2586200;54;21597;31
2023/09/12 06:57:36;;;;;;;13.60;9.50;;;24.00;99.90;;;;;;2585748;54;20035;31
2023/09/12 07:00:17;;;;;;;18.45;10.50;;;24.30;99.90;;;;;;2586093;54;20247;31
2023/09/12 07:02:52;;;;;;;13.18;8.77;;;24.40;99.90;;;;;;2604646;46;20029;31
2023/09/12 07:05:27;;;;;;;16.27;9.03;;;24.70;99.90;;;;;;2584894;54;20916;31
2023/09/12 07:08:04;;;;;;;13.57;8.30;;;24.90;99.90;;;;;;2585849;54;21046;31
2023/09/12 07:13:40;;;;;;;13.55;8.55;;;25.30;99.90;;;;;;2585525;54;20027;31
2023/09/12 07:16:20;;;;;;;12.63;8.30;;;25.50;99.90;;;;;;2585868;54;20085;31
2023/09/12 07:19:08;;;;;;;10.65;8.15;;;25.80;99.90;;;;;;2585581;54;20153;31
2023/09/12 07:21:54;;;;;;;11.00;8.50;;;26.10;99.90;;;;;;2585703;54;20996;31
2023/09/12 07:24:37;;;;;;;14.63;8.75;;;26.30;99.90;;;;;;2585831;54;20234;31
2023/09/12 07:27:20;;;;;;;12.68;7.82;;;26.50;99.90;;;;;;2585739;54;20026;31
2023/09/12 07:29:59;;;;;;;11.07;7.30;;;26.70;99.90;;;;;;2585638;54;20120;31
2023/09/12 07:32:42;;;;;;;10.68;7.72;;;26.90;99.90;;;;;;2585909;54;20654;31
2023/09/12 07:35:17;;;;;;;12.25;7.55;;;27.00;99.90;;;;;;2604217;47;20031;31
2023/09/12 07:37:53;;;;;;;9.50;7.20;;;27.20;99.90;;;;;;2585094;54;20023;31
2023/09/12 07:40:31;;;;;;;9.00;7.10;;;27.40;99.90;;;;;;2682846;39;20610;31
2023/09/12 07:43:09;;;;;;;9.55;6.80;;;27.60;99.90;;;;;;2585912;54;20544;31
2023/09/12 07:45:53;;;;;;;9.10;6.75;;;27.60;99.90;;;;;;2584849;54;20906;31
2023/09/12 07:48:34;;;;;;;9.52;7.22;;;27.70;99.90;;;;;;2604032;47;20026;31
2023/09/12 07:51:35;;;;;;;9.25;6.25;;;27.90;99.90;;;;;;2585927;54;20069;31
2023/09/12 07:54:21;;;;;;;9.00;6.97;;;28.10;99.90;;;;;;2586370;54;20129;31
2023/09/12 07:56:55;;;;;;;9.68;6.85;;;28.10;99.90;;;;;;2586570;54;20851;31
2023/09/12 07:59:44;;;;;;;10.45;6.40;;;28.30;99.90;;;;;;2605048;46;20082;31
2023/09/12 08:02:23;;;;;;;12.40;8.53;;;28.50;99.90;;;;;;2586453;54;20109;31
2023/09/12 08:05:01;;;;;;;12.40;8.20;;;28.60;99.90;;;;;;2586688;54;21094;31
2023/09/12 08:07:35;;;;;;;11.10;8.10;;;28.80;99.90;;;;;;2600383;46;20203;31
2023/09/12 08:10:14;;;;;;;11.25;7.95;;;29.00;99.90;;;;;;2586863;54;20511;31
2023/09/12 08:12:55;;;;;;;10.50;8.00;;;29.20;99.90;;;;;;2586770;54;20035;31
2023/09/12 08:15:42;;;;;;;8.63;6.43;;;29.30;99.90;;;;;;2755356;31;20529;31
2023/09/12 08:18:21;;;;;;;9.45;6.95;;;29.40;99.90;;;;;;2586785;54;21245;31
2023/09/12 08:20:58;;;;;;;10.80;6.60;;;29.50;99.90;;;;;;2586361;54;20030;31
2023/09/12 08:23:34;;;;;;;8.80;6.60;;;29.50;99.90;;;;;;2586346;54;20089;31
2023/09/12 08:26:13;;;;;;;8.40;6.10;;;29.60;99.90;;;;;;2604944;46;20026;31
2023/09/12 08:29:00;;;;;;;8.05;5.80;;;29.60;99.90;;;;;;2586545;54;20979;31
2023/09/12 08:31:34;;;;;;;9.05;5.65;;;29.60;99.90;;;;;;2605112;46;20675;31
2023/09/12 08:34:15;;;;;;;8.90;6.10;;;29.70;99.90;;;;;;2586464;54;20958;31
2023/09/12 08:36:54;;;;;;;9.50;6.30;;;29.80;99.90;;;;;;2605125;46;21341;31
2023/09/12 08:39:43;;;;;;;7.53;5.82;;;29.90;99.90;;;;;;2684125;39;20386;31
2023/09/12 08:42:27;;;;;;;7.10;5.97;;;30.00;99.90;;;;;;2586401;54;21267;31
2023/09/12 08:45:17;;;;;;;7.20;6.13;;;30.10;99.90;;;;;;2586414;54;20027;31
2023/09/12 08:48:00;;;;;;;8.13;6.10;;;30.40;99.90;;;;;;2585661;54;20040;31
2023/09/12 08:50:52;;;;;;;9.20;6.10;;;30.50;99.90;;;;;;2586541;54;20053;31
2023/09/12 08:53:30;;;;;;;6.85;5.47;;;30.60;99.90;;;;;;2605102;46;24177;31
2023/09/12 08:56:07;;;;;;;15.40;6.32;;;30.80;99.90;;;;;;2605005;46;20026;31
2023/09/12 08:58:42;;;;;;;9.48;6.07;;;30.90;99.90;;;;;;2586236;54;20146;31
2023/09/12 09:01:27;;;;;;;7.90;6.30;;;31.00;99.90;;;;;;2586400;54;20824;31
2023/09/12 09:04:05;;;;;;;9.98;7.20;;;31.10;99.90;;;;;;2586322;54;20844;31
2023/09/12 09:06:46;;;;;;;9.13;6.13;;;31.20;99.90;;;;;;2604986;46;20026;31
2023/09/12 09:09:23;;;;;;;9.18;7.68;;;31.30;99.90;;;;;;2604886;46;20038;31
2023/09/12 09:12:03;;;;;;;7.97;6.60;;;31.50;99.90;;;;;;2586153;54;20047;31
2023/09/12 09:14:41;;;;;;;9.77;7.13;;;31.70;99.90;;;;;;2586217;54;20922;31
2023/09/12 09:17:16;;;;;;;8.10;5.82;;;31.70;99.90;;;;;;2586138;54;20081;31
2023/09/12 09:20:20;;;;;;;9.45;6.85;;;32.00;99.90;;;;;;2585982;54;20056;31
2023/09/12 09:23:08;;;;;;;8.05;6.45;;;32.00;99.90;;;;;;2586188;54;20022;31
2023/09/12 09:25:45;;;;;;;9.45;6.35;;;32.20;99.90;;;;;;2605115;46;20907;31
2023/09/12 09:28:33;;;;;;;10.10;6.10;;;32.20;99.90;;;;;;2586173;54;21008;31
2023/09/12 09:31:21;;;;;;;7.15;5.55;;;32.20;99.90;;;;;;2586293;54;21082;31
2023/09/12 09:33:56;;;;;;;7.57;5.28;;;32.30;99.90;;;;;;2586088;54;20873;31
2023/09/12 09:36:35;;;;;;;9.10;6.30;;;32.40;99.90;;;;;;2586371;54;20842;31
2023/09/12 09:39:19;;;;;;;10.85;6.40;;;32.30;99.90;;;;;;2586405;54;20992;31
2023/09/12 09:41:54;;;;;;;8.60;5.68;;;32.20;99.90;;;;;;2604924;46;20042;31
2023/09/12 09:44:33;;;;;;;7.18;5.97;;;32.30;99.90;;;;;;2586388;54;20933;31
2023/09/12 09:47:14;;;;;;;8.00;5.85;;;32.30;99.90;;;;;;2586261;54;20022;31
2023/09/12 09:49:56;;;;;;;7.22;5.63;;;32.40;99.90;;;;;;2586443;54;19934;31
2023/09/12 09:52:42;;;;;;;8.37;6.70;;;32.40;99.90;;;;;;2586220;54;20030;31
2023/09/12 09:55:21;;;;;;;8.53;6.10;;;32.50;99.90;;;;;;2586011;54;19961;31
2023/09/12 09:57:57;;;;;;;7.00;5.60;;;32.60;99.90;;;;;;2586237;54;20250;31
2023/09/12 10:00:35;;;;;;;7.23;6.20;;;32.50;99.90;;;;;;2605115;46;20273;31
2023/09/12 10:03:21;;;;;;;9.02;5.57;;;32.40;99.90;;;;;;2586365;54;20027;31
2023/09/12 10:06:04;;;;;;;6.67;5.30;;;32.40;99.90;;;;;;2586239;54;20047;31
2023/09/12 10:08:43;;;;;;;7.90;5.50;;;32.40;99.80;;;;;;2683908;39;21348;31
2023/09/12 10:11:30;;;;;;;6.70;5.60;;;32.40;99.90;;;;;;2585691;54;20060;31
2023/09/12 10:14:12;;;;;;;7.23;5.97;;;32.40;99.80;;;;;;2585930;54;20901;31
2023/09/12 10:16:51;;;;;;;9.60;6.43;;;32.50;99.90;;;;;;2683568;39;21631;31
2023/09/12 10:19:29;;;;;;;7.30;5.80;;;32.50;98.90;;;;;;2586147;54;20030;31
2023/09/12 10:22:17;;;;;;;;;;;32.50;99.20;;;;;;2586227;54;20917;31
2023/09/12 10:24:56;;;;;;;7.95;6.00;;;32.60;98.30;;;;;;2586362;54;20840;31
2023/09/12 10:27:47;;;;;;;;;;;32.50;97.90;;;;;;2586448;54;20242;31
2023/09/12 10:30:25;;;;;;;9.00;5.40;;;32.50;97.10;;;;;;2586055;54;19990;31
2023/09/12 10:33:10;;;;;;;8.75;5.10;;;32.60;97.60;;;;;;2604804;46;21261;31
2023/09/12 10:35:45;;;;;;;5.22;4.72;;;32.60;97.20;;;;;;2586216;54;20784;31
2023/09/12 10:38:27;;;;;;;7.85;5.10;;;32.60;97.20;;;;;;2586462;54;20866;31
2023/09/12 10:41:06;;;;;;;6.82;5.07;;;32.70;95.70;;;;;;2590043;46;20145;31
2023/09/12 10:43:42;;;;;;;6.50;4.50;;;32.70;95.00;;;;;;2604414;46;20901;31
2023/09/12 10:49:16;;;;;;;5.00;4.10;;;32.80;93.70;;;;;;2585912;54;20034;31
2023/09/12 10:51:53;;;;;;;5.40;4.90;;;32.90;94.10;;;;;;2585538;54;20018;31
2023/09/12 10:54:29;;;;;;;7.05;4.65;;;32.90;93.80;;;;;;2586061;54;20026;31
2023/09/12 10:57:11;;;;;;;7.05;4.50;;;32.90;92.70;;;;;;2585312;54;20034;31
2023/09/12 11:00:08;;;;;;;5.00;3.88;;;32.90;91.50;;;;;;2607223;46;20045;31
2023/09/12 11:03:27;;;;;;;5.30;4.20;;;32.90;90.00;;;;;;2586065;54;19937;31
2023/09/12 11:06:01;;;;;;;6.18;4.20;;;32.80;90.10;;;;;;2586023;54;20027;31
2023/09/12 11:08:46;;;;;;;5.60;4.43;;;32.70;89.80;;;;;;2585939;54;20026;31
2023/09/12 11:11:31;;;;;;;4.90;4.10;;;32.60;88.80;;;;;;2586231;54;19939;31
2023/09/12 11:16:43;;;;;;;5.95;3.95;;;32.50;90.20;;;;;;2586026;54;20907;31
2023/09/12 11:19:48;;;;;;;4.70;4.20;;;32.60;90.10;;;;;;2585819;54;21003;31
2023/09/12 11:22:30;;;;;;;5.45;4.20;;;32.60;90.20;;;;;;2602019;47;20054;31
2023/09/12 11:25:19;;;;;;;5.85;4.50;;;32.60;90.00;;;;;;2586617;54;20023;31
2023/09/12 11:28:10;;;;;;;13.23;4.18;;;32.60;87.00;;;;;;2586200;54;20053;31
2023/09/12 11:30:58;;;;;;;4.80;4.10;;;32.60;87.50;;;;;;2586131;54;21159;31
2023/09/12 11:33:53;;;;;;;5.68;4.13;;;32.50;85.60;;;;;;2605346;46;20030;31
2023/09/12 11:36:42;;;;;;;5.75;4.38;;;32.50;85.70;;;;;;2585604;54;20879;31
2023/09/12 11:39:31;;;;;;;5.30;4.30;;;32.40;86.00;;;;;;2586838;54;20879;31
2023/09/12 11:42:10;;;;;;;6.40;4.38;;;32.30;87.40;;;;;;2586415;54;20477;31
2023/09/12 11:44:53;;;;;;;6.60;4.15;;;32.30;87.00;;;;;;2586667;54;20034;31
2023/09/12 11:47:26;;;;;;;5.00;4.50;;;32.20;86.30;;;;;;2604986;46;20867;31
2023/09/12 11:53:01;;;;;;;4.90;3.80;;;32.20;85.50;;;;;;2586707;54;20871;31
2023/09/12 11:55:41;;;;;;;4.30;3.90;;;32.20;86.60;;;;;;2586714;54;20753;31
2023/09/12 11:58:26;;;;;;;4.43;3.77;;;32.00;86.80;;;;;;2683399;39;21559;31
2023/09/12 12:01:07;;;;;;;5.45;4.30;;;32.00;88.60;;;;;;2605041;46;20930;31
2023/09/12 12:03:52;;;;;;;5.28;3.80;;;32.00;87.80;;;;;;2586714;54;20037;31
2023/09/12 12:06:30;;;;;;;5.75;4.15;;;31.90;86.30;;;;;;2586766;54;20959;31
2023/09/12 12:09:19;;;;;;;5.00;3.95;;;32.00;85.70;;;;;;2605184;46;20881;31
2023/09/12 12:12:00;;;;;;;5.28;4.43;;;31.90;86.20;;;;;;2586482;54;20037;31
2023/09/12 12:14:41;;;;;;;5.80;4.30;;;31.90;87.30;;;;;;2586656;54;20743;31
2023/09/12 12:17:19;;;;;;;6.40;4.63;;;31.80;86.70;;;;;;2585818;54;20035;31
2023/09/12 12:19:55;;;;;;;5.93;4.37;;;31.80;85.90;;;;;;2586349;54;20885;31
2023/09/12 12:22:45;;;;;;;5.85;4.40;;;31.80;86.70;;;;;;2586502;54;20863;31
2023/09/12 12:25:28;;;;;;;7.53;4.60;;;31.60;85.40;;;;;;2604598;46;20027;31
2023/09/12 12:28:05;;;;;;;5.45;4.20;;;31.70;86.30;;;;;;2585654;54;20027;31
2023/09/12 12:34:16;;;;;;;9.55;4.65;;;31.50;86.50;;;;;;2587155;54;20049;31
2023/09/12 12:37:20;;;;;;;6.10;4.40;;;31.40;87.00;;;;;;2586228;54;21562;31
2023/09/12 12:40:04;;;;;;;5.93;4.38;;;31.30;85.50;;;;;;2586395;54;20030;31
2023/09/12 12:42:43;;;;;;;;;;;31.30;86.70;;;;;;2586446;54;20026;31
2023/09/12 12:45:31;;;;;;;5.13;3.90;;;31.30;86.10;;;;;;2586542;54;20037;31
2023/09/12 12:50:47;;;;;;;5.93;4.82;;;31.30;87.10;;;;;;2586611;54;20030;31
2023/09/12 12:53:43;;;;;;;6.23;4.10;;;31.30;86.10;;;;;;2586443;54;20805;31
2023/09/12 12:56:29;;;;;;;5.80;3.93;;;31.20;87.20;;;;;;2586380;54;20766;31
2023/09/12 12:59:08;;;;;;;6.55;4.45;;;31.20;87.70;;;;;;2586297;54;21616;31
2023/09/12 13:01:45;;;;;;;6.30;4.13;;;31.20;86.50;;;;;;2586035;54;20035;31
2023/09/12 13:04:23;;;;;;;5.30;4.17;;;31.20;87.00;;;;;;2586365;54;20030;31
2023/09/12 13:07:02;;;;;;;6.50;4.18;;;31.10;85.60;;;;;;2604351;46;21173;31
2023/09/12 13:09:40;;;;;;;5.75;4.80;;;31.00;86.50;;;;;;2586616;54;20037;31
2023/09/12 13:12:14;;;;;;;6.23;4.40;;;31.10;86.20;;;;;;2604818;46;20165;31
2023/09/12 13:14:51;;;;;;;5.23;4.23;;;31.00;87.50;;;;;;2585629;54;20030;31
2023/09/12 13:17:28;;;;;;;7.80;4.60;;;31.00;88.10;;;;;;2684094;39;21495;31
2023/09/12 13:20:08;;;;;;;8.60;4.70;;;31.00;89.10;;;;;;2586444;54;20496;31
2023/09/12 13:22:49;;;;;;;7.03;4.43;;;31.00;88.20;;;;;;2586137;54;20297;31
2023/09/12 13:25:28;;;;;;;7.00;4.70;;;31.00;88.60;;;;;;2586472;54;20761;31
2023/09/12 13:28:03;;;;;;;5.05;4.50;;;31.00;87.80;;;;;;2586473;54;20545;31
2023/09/12 13:30:41;;;;;;;5.67;4.70;;;31.00;86.80;;;;;;2585347;54;20045;31
2023/09/12 13:33:24;;;;;;;6.00;4.70;;;31.00;87.70;;;;;;2586117;54;20030;31
2023/09/12 13:36:03;;;;;;;7.05;4.85;;;30.90;86.20;;;;;;2586178;54;20021;31
2023/09/12 13:38:42;;;;;;;7.50;4.45;;;30.90;87.10;;;;;;2586593;54;20473;31
2023/09/12 13:41:29;;;;;;;5.57;4.00;;;30.90;88.30;;;;;;2586402;54;20532;31
2023/09/12 13:44:02;;;;;;;6.18;4.95;;;30.90;87.20;;;;;;2604254;46;20112;31
2023/09/12 13:46:38;;;;;;;6.20;4.65;;;30.90;88.10;;;;;;2586480;54;20917;31
2023/09/12 13:49:17;;;;;;;8.60;4.15;;;31.00;87.50;;;;;;2585977;54;20805;31
2023/09/12 13:51:54;;;;;;;8.70;4.73;;;30.90;88.90;;;;;;2586132;54;20431;31
2023/09/12 13:54:38;;;;;;;7.55;4.35;;;30.90;88.20;;;;;;2586241;54;21810;31
2023/09/12 13:57:20;;;;;;;5.28;4.35;;;31.00;89.30;;;;;;2604310;46;20897;31
2023/09/12 13:59:56;;;;;;;4.90;4.10;;;30.90;89.10;;;;;;2586156;54;20033;31
2023/09/12 14:02:35;;;;;;;5.30;4.20;;;30.90;88.60;;;;;;2586281;54;20022;31
2023/09/12 14:05:12;;;;;;;4.67;4.07;;;30.90;87.80;;;;;;2586352;54;20741;31